Terminal Aerodrome Forecast
Issued by NWS

Home | Current Version | Previous Version | Text Only | Print | Product List | Glossary On
Versions: 1 2 3 4 5 6 7 8 9 10 11 12 13 14 15 16 17 18 19 20 21 22 23 24 25 26
000
FTUS43 KSGF 261732
TAFJLN
TAF
KJLN 261732Z 2618/2718 16005KT 6SM -RA BKN025 OVC050
     FM262000 18009KT P6SM VCSH SCT025 OVC050
     FM262200 14006KT P6SM BKN070
     FM270200 13004KT P6SM SCT080
     FM271000 14006KT 5SM BR BKN025
     FM271400 14012KT P6SM BKN025=

USA.gov is the U.S. government's official web portal to all federal, state and local government web resources and services.